Time;durP1;ratioP1;P1;durP2;ratioP2;P2;SDS_P1;SDS_P2;PMS_P1;PMS_P2;Temp;Humidity;BMP_temperature;BMP_pressure;BME280_temperature;BME280_humidity;BME280_pressure;Samples;Min_cycle;Max_cycle;Signal;HPM_P1;HPM_P2
2023/02/15 00:01:22;;;;;;;48.95;32.70;;;3.50;99.90;;;;;;5057293;28;20037;-47
2023/02/15 00:03:49;;;;;;;45.10;31.80;;;3.50;99.90;;;;;;5056915;28;20431;-47
2023/02/15 00:06:16;;;;;;;44.83;31.88;;;3.40;99.90;;;;;;5056667;28;20052;-48
2023/02/15 00:08:42;;;;;;;44.53;32.13;;;3.40;99.90;;;;;;5054490;28;20381;-47
2023/02/15 00:11:09;;;;;;;47.75;33.13;;;3.40;99.90;;;;;;5056632;28;20492;-48
2023/02/15 00:13:36;;;;;;;41.63;31.17;;;3.40;99.90;;;;;;5056603;28;20064;-48
2023/02/15 00:16:02;;;;;;;40.28;31.05;;;3.40;99.90;;;;;;5056559;28;20118;-50
2023/02/15 00:18:29;;;;;;;43.20;31.80;;;3.40;99.90;;;;;;5056682;28;20432;-48
2023/02/15 00:20:56;;;;;;;43.15;31.50;;;3.40;99.90;;;;;;5056915;28;20056;-46
2023/02/15 00:23:23;;;;;;;40.03;31.33;;;3.40;99.90;;;;;;5056781;28;20067;-55
2023/02/15 00:25:50;;;;;;;42.33;31.90;;;3.50;99.90;;;;;;5056613;28;20099;-52
2023/02/15 00:28:16;;;;;;;46.70;32.53;;;3.50;99.90;;;;;;5056404;28;20048;-52
2023/02/15 00:30:43;;;;;;;44.85;32.40;;;3.50;99.90;;;;;;5056479;28;20079;-52
2023/02/15 00:33:10;;;;;;;44.00;32.78;;;3.50;99.90;;;;;;5056697;28;20571;-52
2023/02/15 00:35:37;;;;;;;43.83;32.60;;;3.50;99.90;;;;;;5055916;28;20041;-51
2023/02/15 00:38:03;;;;;;;45.00;32.50;;;3.50;99.90;;;;;;5054843;28;20053;-54
2023/02/15 00:40:30;;;;;;;41.72;30.45;;;3.50;99.90;;;;;;5056393;28;20041;-51
2023/02/15 00:42:58;;;;;;;43.60;31.90;;;3.40;99.90;;;;;;5055184;28;20095;-51
2023/02/15 00:45:25;;;;;;;43.33;32.20;;;3.50;99.90;;;;;;5055151;28;20045;-51
2023/02/15 00:47:51;;;;;;;43.85;32.45;;;3.40;99.90;;;;;;5038557;28;20067;-55
2023/02/15 00:50:18;;;;;;;46.50;32.45;;;3.50;99.90;;;;;;5055047;28;20049;-53
2023/02/15 00:52:48;;;;;;;45.22;34.25;;;3.50;99.90;;;;;;5054484;28;20066;-55
2023/02/15 00:55:15;;;;;;;46.45;33.83;;;3.60;99.90;;;;;;5055966;28;20048;-53
2023/02/15 00:57:41;;;;;;;47.10;34.00;;;3.70;99.90;;;;;;5056123;28;20041;-50
2023/02/15 01:00:08;;;;;;;51.45;36.10;;;3.70;99.90;;;;;;5055745;28;20041;-48
2023/02/15 01:02:35;;;;;;;44.92;34.17;;;3.80;99.90;;;;;;5038492;28;20048;-49
2023/02/15 01:05:02;;;;;;;49.75;36.28;;;3.80;99.90;;;;;;5053829;28;20128;-52
2023/02/15 01:07:28;;;;;;;48.83;35.63;;;3.90;99.90;;;;;;5053342;28;20045;-53
2023/02/15 01:09:55;;;;;;;45.10;34.28;;;4.00;99.90;;;;;;5054349;28;20080;-51
2023/02/15 01:12:22;;;;;;;47.10;34.80;;;4.00;99.90;;;;;;5055675;28;20087;-52
2023/02/15 01:14:48;;;;;;;44.95;34.00;;;4.10;99.90;;;;;;5054674;28;20044;-51
2023/02/15 01:17:15;;;;;;;46.97;35.05;;;4.10;99.90;;;;;;5055670;28;20090;-52
2023/02/15 01:19:42;;;;;;;47.83;34.17;;;4.10;99.90;;;;;;5054178;28;20057;-55
2023/02/15 01:22:09;;;;;;;47.28;34.00;;;4.10;99.90;;;;;;5054469;28;20043;-55
2023/02/15 01:24:36;;;;;;;46.88;33.60;;;4.10;99.90;;;;;;5055776;28;20167;-53
2023/02/15 01:27:03;;;;;;;41.97;32.42;;;4.10;99.90;;;;;;5055492;28;20083;-52
2023/02/15 01:29:29;;;;;;;42.42;32.92;;;4.10;99.90;;;;;;5055518;28;20480;-52
2023/02/15 01:31:56;;;;;;;48.65;35.35;;;4.10;99.90;;;;;;5055737;28;20049;-51
2023/02/15 01:34:23;;;;;;;44.88;33.75;;;4.10;99.90;;;;;;5055458;28;20055;-51
2023/02/15 01:36:50;;;;;;;47.78;35.10;;;4.20;99.90;;;;;;5054132;28;20102;-49
2023/02/15 01:39:26;;;;;;;46.03;34.72;;;4.20;99.90;;;;;;5054054;28;20047;-53
2023/02/15 01:41:52;;;;;;;51.83;36.30;;;4.20;99.90;;;;;;5054055;28;20049;-51
2023/02/15 01:44:19;;;;;;;49.72;37.10;;;4.20;99.90;;;;;;5054065;28;20056;-53
2023/02/15 01:46:46;;;;;;;47.85;36.85;;;4.20;99.90;;;;;;5053639;28;20488;-52
2023/02/15 01:49:13;;;;;;;53.30;38.08;;;4.20;99.90;;;;;;5054851;28;20045;-51
2023/02/15 01:51:39;;;;;;;55.97;37.35;;;4.20;99.90;;;;;;5054920;28;20091;-51
2023/02/15 01:54:06;;;;;;;52.15;36.30;;;4.20;99.90;;;;;;5054967;28;20044;-49
2023/02/15 01:56:34;;;;;;;49.97;35.97;;;4.20;99.90;;;;;;5053808;28;20033;-51
2023/02/15 01:59:01;;;;;;;50.10;36.08;;;4.20;99.90;;;;;;5053609;28;20045;-50
2023/02/15 02:01:28;;;;;;;48.80;36.33;;;4.20;99.90;;;;;;5053693;28;20045;-52
2023/02/15 02:03:57;;;;;;;49.80;36.80;;;4.20;99.90;;;;;;5053380;28;20429;-51
2023/02/15 02:06:24;;;;;;;49.55;35.55;;;4.20;99.90;;;;;;5053056;28;20051;-48
2023/02/15 02:08:51;;;;;;;48.83;35.85;;;4.20;99.90;;;;;;5053633;28;20057;-50
2023/02/15 02:11:18;;;;;;;48.72;35.95;;;4.20;99.90;;;;;;5053237;28;20122;-52
2023/02/15 02:13:46;;;;;;;49.08;37.17;;;4.20;99.90;;;;;;5054503;28;20083;-48
2023/02/15 02:16:12;;;;;;;51.53;37.15;;;4.20;99.90;;;;;;5052266;28;20045;-52
2023/02/15 02:18:39;;;;;;;49.67;36.95;;;4.20;99.90;;;;;;5052654;28;20094;-50
2023/02/15 02:21:06;;;;;;;53.40;37.90;;;4.20;99.90;;;;;;5053517;28;20048;-51
2023/02/15 02:23:35;;;;;;;48.80;36.42;;;4.10;99.90;;;;;;5054314;28;20087;-54
2023/02/15 02:26:02;;;;;;;46.83;35.80;;;4.10;99.90;;;;;;5053043;28;20427;-53
2023/02/15 02:28:30;;;;;;;48.50;35.97;;;4.10;99.90;;;;;;5054276;28;20119;-54
2023/02/15 02:30:57;;;;;;;51.63;37.40;;;4.10;99.90;;;;;;5054096;28;20384;-54
2023/02/15 02:33:24;;;;;;;50.20;36.72;;;4.10;99.90;;;;;;5052825;28;20041;-51
2023/02/15 02:35:50;;;;;;;53.20;37.40;;;4.10;99.90;;;;;;5053003;28;20077;-54
2023/02/15 02:38:17;;;;;;;53.65;37.55;;;4.00;99.90;;;;;;5052554;28;20099;-49
2023/02/15 02:40:44;;;;;;;50.95;37.25;;;4.00;99.90;;;;;;5054134;28;20451;-55
2023/02/15 02:43:11;;;;;;;50.90;36.05;;;4.00;99.90;;;;;;5054257;28;20073;-53
2023/02/15 02:45:37;;;;;;;52.92;36.33;;;4.00;99.90;;;;;;5052404;28;20041;-53
2023/02/15 02:48:04;;;;;;;48.83;36.55;;;4.00;99.90;;;;;;5052598;28;20480;-50
2023/02/15 02:50:31;;;;;;;50.03;35.92;;;4.00;99.90;;;;;;5054044;28;20037;-49
2023/02/15 02:52:58;;;;;;;46.28;34.42;;;4.00;99.90;;;;;;5053789;28;20544;-54
2023/02/15 02:55:25;;;;;;;52.75;37.60;;;3.90;99.90;;;;;;5052408;28;20071;-49
2023/02/15 02:57:51;;;;;;;44.63;33.92;;;4.00;99.90;;;;;;5053894;28;20037;-51
2023/02/15 03:00:18;;;;;;;49.30;35.60;;;3.90;99.90;;;;;;5054028;28;20074;-54
2023/02/15 03:02:45;;;;;;;50.33;35.83;;;3.90;99.90;;;;;;5052423;28;20048;-49
2023/02/15 03:05:12;;;;;;;49.42;36.72;;;3.80;99.90;;;;;;5053613;28;20131;-55
2023/02/15 03:07:39;;;;;;;51.78;37.28;;;3.80;99.90;;;;;;5053553;28;20036;-50
2023/02/15 03:10:06;;;;;;;52.00;36.45;;;3.80;99.90;;;;;;5052479;28;20064;-51
2023/02/15 03:12:32;;;;;;;46.47;34.83;;;3.70;99.90;;;;;;5052081;28;20060;-52
2023/02/15 03:14:59;;;;;;;52.47;36.50;;;3.70;99.90;;;;;;5052241;28;20051;-53
2023/02/15 03:17:26;;;;;;;47.60;36.00;;;3.70;99.90;;;;;;5053266;28;20060;-54
2023/02/15 03:19:53;;;;;;;46.30;35.67;;;3.60;99.90;;;;;;5053710;28;20053;-49
2023/02/15 03:22:20;;;;;;;48.50;34.60;;;3.60;99.90;;;;;;5052191;28;20455;-50
2023/02/15 03:24:46;;;;;;;47.58;34.90;;;3.50;99.90;;;;;;5052108;28;20045;-51
2023/02/15 03:27:16;;;;;;;48.90;35.53;;;3.50;99.90;;;;;;5051817;28;20045;-51
2023/02/15 03:29:44;;;;;;;47.83;35.00;;;3.40;99.90;;;;;;5051968;28;20392;-50
2023/02/15 03:32:10;;;;;;;46.47;33.85;;;3.40;99.90;;;;;;5053248;28;20045;-50
2023/02/15 03:34:37;;;;;;;48.42;35.60;;;3.40;99.90;;;;;;5053213;28;20064;-48
2023/02/15 03:37:04;;;;;;;50.65;37.00;;;3.30;99.90;;;;;;5052951;28;20056;-52
2023/02/15 03:39:33;;;;;;;50.20;36.08;;;3.30;99.90;;;;;;5053285;28;20434;-52
2023/02/15 03:42:00;;;;;;;49.65;36.97;;;3.20;99.90;;;;;;5053311;28;20037;-50
2023/02/15 03:44:27;;;;;;;48.35;35.95;;;3.20;99.90;;;;;;5053287;28;20047;-52
2023/02/15 03:46:53;;;;;;;47.90;35.65;;;3.10;99.90;;;;;;5053313;28;20067;-49
2023/02/15 03:49:20;;;;;;;53.58;38.20;;;3.20;99.90;;;;;;5053581;28;20056;-52
2023/02/15 03:51:47;;;;;;;51.00;37.85;;;3.10;99.90;;;;;;5052326;28;20049;-51
2023/02/15 03:54:38;;;;;;;53.42;37.40;;;3.10;99.90;;;;;;5052991;28;20064;-49
2023/02/15 04:02:37;;;;;;;51.17;36.88;;;3.00;99.90;;;;;;5053515;28;20488;-50
2023/02/15 04:05:03;;;;;;;54.00;37.65;;;3.00;99.90;;;;;;5052312;28;20049;-49
2023/02/15 04:07:30;;;;;;;51.40;37.20;;;3.00;99.90;;;;;;5052971;28;20049;-47
2023/02/15 04:12:42;;;;;;;54.33;39.00;;;3.00;99.90;;;;;;5053305;28;20049;-51
2023/02/15 04:17:54;;;;;;;57.97;39.73;;;2.90;99.90;;;;;;5053163;28;20120;-50
2023/02/15 04:25:52;;;;;;;54.72;38.10;;;2.90;99.90;;;;;;5053274;28;20499;-50
2023/02/15 04:28:18;;;;;;;57.28;39.80;;;2.90;99.90;;;;;;5054095;28;20060;-51
2023/02/15 04:30:45;;;;;;;62.55;42.60;;;2.90;99.90;;;;;;5053753;28;20550;-50
2023/02/15 04:33:12;;;;;;;60.08;41.95;;;2.90;99.90;;;;;;5054534;28;20045;-54
2023/02/15 04:35:38;;;;;;;58.35;42.67;;;2.90;99.90;;;;;;5071198;28;20599;-48
2023/02/15 04:38:05;;;;;;;68.63;45.90;;;3.00;99.90;;;;;;5072558;28;20131;-48
2023/02/15 04:40:32;;;;;;;69.82;46.40;;;3.00;99.90;;;;;;5055380;28;20041;-50
2023/02/15 04:42:59;;;;;;;66.60;47.03;;;3.10;99.90;;;;;;5056301;28;20431;-47
2023/02/15 04:45:26;;;;;;;70.85;48.60;;;3.10;99.90;;;;;;5056001;28;20037;-48
2023/02/15 04:47:53;;;;;;;76.82;49.92;;;3.10;99.90;;;;;;5056174;28;20041;-50
2023/02/15 04:50:20;;;;;;;76.03;50.60;;;3.10;99.90;;;;;;5056533;28;20447;-48
2023/02/15 04:52:47;;;;;;;77.50;50.55;;;3.20;99.90;;;;;;5054529;28;20553;-47
2023/02/15 04:55:14;;;;;;;77.97;51.42;;;3.20;99.90;;;;;;5054669;28;20052;-52
2023/02/15 04:57:40;;;;;;;77.90;53.35;;;3.20;99.90;;;;;;5055897;28;20064;-48
2023/02/15 05:00:08;;;;;;;82.32;54.38;;;3.20;99.90;;;;;;5056333;28;20494;-48
2023/02/15 05:02:35;;;;;;;81.22;52.45;;;3.30;99.90;;;;;;5054222;28;20439;-51
2023/02/15 05:05:02;;;;;;;77.32;52.33;;;3.30;99.90;;;;;;5055472;28;20476;-47
2023/02/15 05:07:29;;;;;;;78.85;53.92;;;3.40;99.90;;;;;;5055369;28;20107;-49
2023/02/15 05:09:55;;;;;;;87.63;57.53;;;3.40;99.90;;;;;;5055881;28;20049;-52
2023/02/15 05:12:22;;;;;;;81.07;53.53;;;3.50;99.90;;;;;;5055745;28;20072;-51
2023/02/15 05:14:49;;;;;;;80.38;53.40;;;3.60;99.90;;;;;;5055868;28;20052;-52
2023/02/15 05:17:15;;;;;;;80.93;55.20;;;3.70;99.90;;;;;;5055390;28;20057;-52
2023/02/15 05:19:42;;;;;;;81.18;54.63;;;3.70;99.90;;;;;;5055619;28;20106;-50
2023/02/15 05:22:09;;;;;;;85.10;57.10;;;3.80;99.90;;;;;;5055315;28;20045;-53
2023/02/15 05:30:11;;;;;;;81.33;53.87;;;4.00;99.90;;;;;;5055132;28;20080;-53
2023/02/15 05:32:38;;;;;;;78.97;52.88;;;4.00;99.90;;;;;;5055336;28;20492;-51
2023/02/15 05:35:05;;;;;;;79.20;53.95;;;4.00;99.90;;;;;;5055293;28;20041;-50
2023/02/15 05:37:32;;;;;;;80.88;54.20;;;4.00;99.90;;;;;;5053817;28;20447;-52
2023/02/15 05:39:59;;;;;;;73.28;51.60;;;4.00;99.90;;;;;;5054898;28;20048;-47
2023/02/15 05:42:25;;;;;;;76.22;53.10;;;4.00;99.90;;;;;;5055545;28;20129;-47
2023/02/15 05:44:52;;;;;;;74.78;53.53;;;4.00;99.90;;;;;;5055252;28;20542;-50
2023/02/15 05:47:19;;;;;;;81.75;54.65;;;4.10;99.90;;;;;;5054879;28;20032;-51
2023/02/15 05:49:45;;;;;;;79.43;53.63;;;4.10;99.90;;;;;;5055255;28;20109;-50
2023/02/15 05:52:12;;;;;;;74.25;51.22;;;4.10;99.90;;;;;;5054673;28;20048;-53
2023/02/15 05:54:39;;;;;;;74.78;52.42;;;4.10;99.90;;;;;;5054863;28;20514;-48
2023/02/15 05:57:05;;;;;;;77.78;51.20;;;4.10;99.90;;;;;;5054729;28;20067;-48
2023/02/15 05:59:32;;;;;;;77.75;51.58;;;4.10;99.90;;;;;;5055024;28;20045;-51
2023/02/15 06:01:59;;;;;;;75.07;52.53;;;4.10;99.90;;;;;;5055050;28;20045;-50
2023/02/15 06:04:26;;;;;;;74.22;51.30;;;4.10;99.90;;;;;;5054926;28;20041;-49
2023/02/15 06:06:53;;;;;;;71.97;49.35;;;4.10;99.90;;;;;;5054536;28;20045;-50
2023/02/15 06:09:19;;;;;;;73.60;51.97;;;4.10;99.90;;;;;;5054887;28;20037;-52
2023/02/15 06:11:46;;;;;;;67.82;49.83;;;4.10;99.90;;;;;;5054603;28;20110;-55
2023/02/15 06:14:13;;;;;;;76.13;51.72;;;4.10;99.90;;;;;;5054649;28;20047;-53
2023/02/15 06:16:40;;;;;;;74.65;51.10;;;4.10;99.90;;;;;;5054349;28;20072;-49
2023/02/15 06:19:06;;;;;;;73.40;51.25;;;4.10;99.90;;;;;;5054850;28;20514;-49
2023/02/15 06:21:33;;;;;;;70.93;49.50;;;4.20;99.90;;;;;;5054402;28;20033;-52
2023/02/15 06:24:00;;;;;;;78.90;51.97;;;4.30;99.90;;;;;;5054277;28;20044;-50
2023/02/15 06:26:27;;;;;;;73.60;51.33;;;4.40;99.90;;;;;;5054370;28;20110;-47
2023/02/15 06:28:53;;;;;;;70.93;51.17;;;4.50;99.90;;;;;;5054518;28;20099;-49
2023/02/15 06:31:20;;;;;;;70.60;51.58;;;4.70;99.90;;;;;;5054497;28;20103;-50
2023/02/15 06:33:47;;;;;;;70.10;50.53;;;4.80;99.90;;;;;;5054070;28;20492;-50
2023/02/15 06:36:14;;;;;;;71.70;49.78;;;4.90;99.90;;;;;;5054291;28;20098;-53
2023/02/15 06:38:40;;;;;;;68.65;48.33;;;4.90;99.90;;;;;;5053872;28;20381;-51
2023/02/15 06:41:07;;;;;;;70.25;49.08;;;4.90;99.90;;;;;;5054378;28;20045;-46
2023/02/15 06:43:34;;;;;;;69.88;48.70;;;4.90;99.90;;;;;;5054227;28;20132;-52
2023/02/15 06:46:01;;;;;;;73.28;48.15;;;5.00;99.90;;;;;;5054047;28;20047;-49
2023/02/15 06:48:28;;;;;;;70.63;48.38;;;5.00;99.90;;;;;;5054384;28;20064;-52
2023/02/15 06:50:55;;;;;;;68.35;48.28;;;5.00;99.90;;;;;;5054244;28;20037;-50
2023/02/15 06:53:22;;;;;;;63.70;47.03;;;5.00;99.90;;;;;;5054229;28;20400;-53
2023/02/15 06:55:49;;;;;;;68.45;49.13;;;5.00;99.90;;;;;;5054212;28;20488;-55
2023/02/15 06:58:15;;;;;;;67.47;48.38;;;5.00;99.90;;;;;;5053915;28;20113;-47
2023/02/15 07:00:42;;;;;;;68.25;47.08;;;4.90;99.90;;;;;;5053647;28;20040;-50
2023/02/15 07:03:09;;;;;;;69.95;48.47;;;4.90;99.90;;;;;;5053057;28;20037;-47
2023/02/15 07:05:35;;;;;;;70.05;48.20;;;4.90;99.90;;;;;;5052626;28;20076;-49
2023/02/15 07:08:02;;;;;;;64.18;46.25;;;4.80;99.90;;;;;;5053369;28;20522;-49
2023/02/15 07:10:29;;;;;;;73.68;49.33;;;4.90;99.90;;;;;;5053749;28;20075;-50
2023/02/15 07:12:56;;;;;;;71.50;49.53;;;4.90;99.90;;;;;;5053702;28;20051;-49
2023/02/15 07:15:22;;;;;;;70.13;48.92;;;4.80;99.90;;;;;;5052240;28;20052;-51
2023/02/15 07:17:49;;;;;;;66.97;48.47;;;4.80;99.90;;;;;;5053350;28;20044;-54
2023/02/15 07:20:16;;;;;;;70.80;49.53;;;4.90;99.90;;;;;;5053413;28;20041;-54
2023/02/15 07:22:43;;;;;;;67.03;48.50;;;4.90;99.90;;;;;;5053732;28;20049;-52
2023/02/15 07:25:10;;;;;;;67.10;48.88;;;4.90;99.90;;;;;;5053779;28;20439;-50
2023/02/15 07:27:36;;;;;;;64.50;46.67;;;4.80;99.90;;;;;;5053204;28;20047;-50
2023/02/15 07:30:03;;;;;;;70.03;49.15;;;4.70;99.90;;;;;;5053569;28;20384;-55
2023/02/15 07:32:31;;;;;;;67.07;47.58;;;4.70;99.90;;;;;;5053114;28;20051;-52
2023/02/15 07:34:57;;;;;;;67.07;47.53;;;4.70;99.90;;;;;;5053329;28;20060;-55
2023/02/15 07:37:24;;;;;;;71.82;48.75;;;4.60;99.90;;;;;;5053451;28;20041;-52
2023/02/15 07:39:51;;;;;;;72.65;49.13;;;4.60;99.90;;;;;;5053276;28;20120;-52
2023/02/15 07:42:19;;;;;;;74.43;49.15;;;4.50;99.90;;;;;;5053253;28;20037;-51
2023/02/15 07:44:50;;;;;;;67.30;49.33;;;4.60;99.90;;;;;;5052231;28;20508;-56
2023/02/15 07:47:17;;;;;;;71.47;48.90;;;4.60;99.90;;;;;;5052985;28;20052;-53
2023/02/15 07:49:44;;;;;;;72.18;51.85;;;4.70;99.90;;;;;;5043643;28;20431;-49
2023/02/15 07:52:10;;;;;;;72.03;49.83;;;4.70;99.90;;;;;;5041206;28;20045;-49
2023/02/15 07:54:37;;;;;;;71.53;48.70;;;4.80;99.90;;;;;;5033351;28;20109;-53
2023/02/15 07:57:04;;;;;;;64.57;46.67;;;4.90;99.90;;;;;;5031667;28;20049;-50
2023/02/15 07:59:31;;;;;;;66.32;47.10;;;5.00;99.90;;;;;;5040605;28;20037;-52
2023/02/15 08:01:57;;;;;;;63.53;46.58;;;5.10;99.90;;;;;;5043706;28;20049;-49
2023/02/15 08:04:24;;;;;;;61.75;44.22;;;5.20;99.90;;;;;;5033135;28;20555;-52
2023/02/15 08:06:51;;;;;;;62.67;44.42;;;5.30;99.90;;;;;;5032040;28;20037;-49
2023/02/15 08:09:18;;;;;;;60.88;44.38;;;5.40;99.90;;;;;;5031882;28;20447;-50
2023/02/15 08:11:45;;;;;;;59.70;42.92;;;5.50;99.90;;;;;;5032861;28;20136;-50
2023/02/15 08:14:11;;;;;;;54.63;40.42;;;5.70;99.90;;;;;;5060311;28;20446;-51
2023/02/15 08:16:38;;;;;;;52.65;40.15;;;5.80;99.90;;;;;;5047536;28;20453;-50
2023/02/15 08:19:05;;;;;;;51.88;39.13;;;5.90;99.90;;;;;;5055963;28;20493;-51
2023/02/15 08:21:32;;;;;;;54.10;39.85;;;5.90;99.90;;;;;;5056192;28;20060;-54
2023/02/15 08:23:59;;;;;;;50.63;38.70;;;6.00;99.90;;;;;;5056104;28;20044;-52
2023/02/15 08:26:27;;;;;;;50.90;37.60;;;6.10;99.90;;;;;;5055974;28;20439;-50
2023/02/15 08:28:53;;;;;;;46.78;36.45;;;6.10;99.90;;;;;;5046907;28;20041;-48
2023/02/15 08:31:20;;;;;;;49.05;36.50;;;6.20;99.90;;;;;;5036000;28;20477;-51
2023/02/15 08:33:47;;;;;;;47.08;34.20;;;6.20;99.90;;;;;;5028192;28;20112;-49
2023/02/15 08:36:14;;;;;;;46.83;35.33;;;6.30;99.90;;;;;;5035924;28;20087;-51
2023/02/15 08:38:41;;;;;;;44.15;33.17;;;6.30;99.90;;;;;;5035732;28;20045;-49
2023/02/15 08:41:07;;;;;;;45.00;34.75;;;6.30;99.90;;;;;;5038818;28;20033;-51
2023/02/15 08:43:34;;;;;;;45.40;33.33;;;6.30;99.90;;;;;;5050240;28;20091;-52
2023/02/15 08:46:01;;;;;;;44.17;34.17;;;6.40;99.90;;;;;;5053976;28;20045;-50
2023/02/15 08:48:28;;;;;;;43.15;34.55;;;6.40;99.90;;;;;;5055292;28;20053;-49
2023/02/15 08:50:54;;;;;;;46.55;33.22;;;6.40;99.90;;;;;;5054817;28;20443;-51
2023/02/15 08:53:21;;;;;;;43.85;33.55;;;6.50;99.90;;;;;;5046231;28;20041;-50
2023/02/15 08:55:51;;;;;;;43.78;31.98;;;6.40;99.90;;;;;;5055630;28;20044;-51
2023/02/15 08:58:18;;;;;;;41.88;32.50;;;6.50;99.90;;;;;;5055035;28;20037;-50
2023/02/15 09:00:44;;;;;;;51.83;34.28;;;6.50;99.90;;;;;;5055147;28;20071;-47
2023/02/15 09:03:13;;;;;;;44.05;33.35;;;6.50;99.90;;;;;;5054268;28;20404;-53
2023/02/15 09:05:39;;;;;;;47.53;33.40;;;6.50;99.90;;;;;;5055725;28;20064;-55
2023/02/15 09:08:06;;;;;;;45.30;34.92;;;6.60;99.90;;;;;;5046108;28;20134;-46
2023/02/15 09:10:33;;;;;;;45.30;34.85;;;6.70;99.90;;;;;;5032137;28;20069;-53
2023/02/15 09:13:00;;;;;;;45.15;35.60;;;6.80;99.90;;;;;;5038495;28;20044;-49
2023/02/15 09:15:27;;;;;;;42.35;33.50;;;6.90;99.90;;;;;;5055006;28;20041;-49
2023/02/15 09:17:54;;;;;;;42.33;32.75;;;7.00;99.90;;;;;;5049147;28;20034;-50
2023/02/15 09:20:21;;;;;;;41.22;32.47;;;7.10;99.90;;;;;;5040100;28;20045;-54
2023/02/15 09:22:48;;;;;;;38.63;31.77;;;7.20;99.90;;;;;;5034449;28;20041;-52
2023/02/15 09:25:15;;;;;;;40.20;31.42;;;7.40;99.90;;;;;;5035073;28;20087;-51
2023/02/15 09:27:42;;;;;;;39.85;31.42;;;7.50;99.90;;;;;;5034333;28;20037;-52
2023/02/15 09:30:09;;;;;;;39.10;30.70;;;7.70;99.90;;;;;;5034935;28;20045;-48
2023/02/15 09:32:36;;;;;;;38.88;30.85;;;7.80;99.90;;;;;;5033668;28;20106;-48
2023/02/15 09:35:03;;;;;;;38.78;29.63;;;7.90;99.90;;;;;;5034842;28;20041;-50
2023/02/15 09:37:29;;;;;;;35.67;28.55;;;8.00;99.90;;;;;;5035063;28;20049;-49
2023/02/15 09:39:56;;;;;;;88.82;60.20;;;8.10;99.90;;;;;;5034680;28;20120;-48
2023/02/15 09:42:23;;;;;;;36.75;29.70;;;8.20;99.90;;;;;;5034877;28;20100;-53
2023/02/15 09:44:49;;;;;;;34.30;27.65;;;8.30;99.90;;;;;;5053070;28;20037;-53
2023/02/15 09:47:16;;;;;;;38.55;29.23;;;8.40;99.90;;;;;;5054802;28;20073;-47
2023/02/15 09:49:43;;;;;;;35.20;28.02;;;8.40;99.90;;;;;;5054818;28;20095;-50
2023/02/15 09:52:10;;;;;;;34.85;26.85;;;8.40;99.90;;;;;;5053740;28;20488;-52
2023/02/15 09:54:36;;;;;;;30.05;24.88;;;8.50;99.90;;;;;;5054357;28;20396;-50
2023/02/15 09:57:03;;;;;;;34.05;25.98;;;8.60;99.90;;;;;;5054335;28;20045;-50
2023/02/15 09:59:30;;;;;;;35.33;26.35;;;8.60;99.90;;;;;;5054469;28;20444;-55
2023/02/15 10:01:57;;;;;;;33.08;24.45;;;8.70;99.90;;;;;;5054503;28;20044;-52
2023/02/15 10:04:24;;;;;;;32.10;23.88;;;8.70;99.90;;;;;;5053429;28;20458;-49
2023/02/15 10:06:51;;;;;;;32.25;24.48;;;8.80;99.90;;;;;;5053964;28;20439;-52
2023/02/15 10:09:17;;;;;;;32.28;25.25;;;8.90;99.90;;;;;;5054389;28;20057;-53
2023/02/15 10:11:44;;;;;;;30.70;24.33;;;9.00;99.90;;;;;;5053036;28;20531;-50
2023/02/15 10:14:11;;;;;;;30.85;23.20;;;9.10;99.90;;;;;;5054190;28;20045;-53
2023/02/15 10:16:37;;;;;;;32.05;23.70;;;9.20;99.90;;;;;;5053656;28;20084;-53
2023/02/15 10:19:04;;;;;;;26.73;22.63;;;9.20;99.90;;;;;;5054101;28;20455;-50
2023/02/15 10:21:31;;;;;;;28.35;22.30;;;9.30;99.90;;;;;;5053930;28;20095;-51
2023/02/15 10:23:58;;;;;;;28.67;22.15;;;9.40;99.90;;;;;;5053901;28;20048;-53
2023/02/15 10:26:25;;;;;;;25.55;22.02;;;9.40;99.90;;;;;;5053600;28;20036;-51
2023/02/15 10:28:52;;;;;;;27.48;21.77;;;9.50;99.90;;;;;;5053925;28;20049;-50
2023/02/15 10:31:20;;;;;;;31.38;21.92;;;9.50;99.90;;;;;;5052226;28;20048;-54
2023/02/15 10:33:48;;;;;;;48.05;22.95;;;9.50;99.90;;;;;;5050088;28;20056;-54
2023/02/15 10:36:16;;;;;;;30.45;21.40;;;9.50;99.90;;;;;;5053616;28;20037;-54
2023/02/15 10:38:42;;;;;;;28.35;21.02;;;9.60;99.90;;;;;;5052608;28;20045;-52
2023/02/15 10:41:09;;;;;;;35.15;22.40;;;9.60;99.90;;;;;;5053578;28;20120;-55
2023/02/15 10:43:36;;;;;;;30.23;20.50;;;9.60;99.90;;;;;;5053779;28;20592;-56
2023/02/15 10:46:03;;;;;;;27.38;20.85;;;9.60;99.90;;;;;;5053228;28;20041;-52
2023/02/15 10:48:29;;;;;;;31.13;20.42;;;9.60;99.90;;;;;;5053474;28;20041;-52
2023/02/15 10:50:56;;;;;;;64.43;21.75;;;9.70;99.90;;;;;;5053557;28;20048;-52
2023/02/15 10:53:23;;;;;;;34.17;19.45;;;9.60;99.90;;;;;;5053533;28;20033;-52
2023/02/15 10:55:50;;;;;;;25.60;19.73;;;9.70;99.90;;;;;;5053109;28;20041;-48
2023/02/15 10:58:17;;;;;;;25.55;19.38;;;9.70;99.90;;;;;;5053413;28;20558;-50
2023/02/15 11:00:44;;;;;;;24.85;18.65;;;9.70;99.90;;;;;;5052891;28;20110;-51
2023/02/15 11:03:10;;;;;;;23.67;19.75;;;9.70;99.90;;;;;;5033372;28;20979;-51
2023/02/15 11:05:37;;;;;;;28.08;20.05;;;9.70;99.90;;;;;;5048600;28;20506;-49
2023/02/15 11:08:04;;;;;;;29.45;19.45;;;9.60;99.90;;;;;;5052183;28;20088;-50
2023/02/15 11:10:31;;;;;;;22.70;18.17;;;9.70;99.90;;;;;;5053000;28;20091;-52
2023/02/15 11:12:57;;;;;;;24.98;18.52;;;9.80;99.90;;;;;;5051891;28;20045;-47
2023/02/15 11:15:24;;;;;;;23.83;19.08;;;9.80;99.90;;;;;;5052973;28;20120;-54
2023/02/15 11:17:51;;;;;;;23.10;18.52;;;9.90;99.90;;;;;;5052494;28;20381;-58
2023/02/15 11:20:18;;;;;;;25.27;17.98;;;10.00;99.90;;;;;;5051840;28;20052;-62
2023/02/15 11:22:45;;;;;;;26.38;18.60;;;10.00;99.90;;;;;;5052729;28;20028;-61
2023/02/15 11:25:11;;;;;;;33.13;17.05;;;10.10;99.90;;;;;;5052883;28;20128;-55
2023/02/15 11:27:38;;;;;;;38.80;17.50;;;10.20;99.90;;;;;;5052798;28;20037;-56
2023/02/15 11:30:09;;;;;;;44.92;18.27;;;10.30;99.90;;;;;;5052693;28;20128;-52
2023/02/15 11:32:35;;;;;;;50.55;17.63;;;10.40;99.90;;;;;;5052832;28;20403;-55
2023/02/15 11:35:02;;;;;;;69.72;18.83;;;10.50;99.90;;;;;;5053015;28;20059;-58
2023/02/15 11:37:29;;;;;;;38.00;17.55;;;10.60;99.90;;;;;;5052963;28;20545;-62
2023/02/15 11:39:56;;;;;;;22.23;16.13;;;10.70;99.90;;;;;;5052810;28;20056;-61
2023/02/15 11:42:23;;;;;;;31.13;16.30;;;10.70;99.90;;;;;;5052807;28;20067;-61
2023/02/15 11:44:50;;;;;;;44.25;16.88;;;10.80;99.90;;;;;;5052759;28;20048;-61
2023/02/15 11:47:16;;;;;;;24.27;15.63;;;10.90;99.90;;;;;;5052657;28;20041;-62
2023/02/15 11:49:43;;;;;;;20.83;14.95;;;10.90;99.90;;;;;;5051743;28;20496;-61
2023/02/15 11:52:10;;;;;;;30.00;15.45;;;11.00;99.90;;;;;;5056607;28;20045;-62
2023/02/15 11:54:37;;;;;;;24.25;14.40;;;11.00;99.90;;;;;;5056575;28;20344;-62
2023/02/15 11:57:04;;;;;;;26.55;14.70;;;11.10;99.90;;;;;;5056441;28;20052;-61
2023/02/15 11:59:31;;;;;;;24.23;14.45;;;11.20;99.90;;;;;;5056305;28;20037;-61
2023/02/15 12:01:58;;;;;;;32.40;16.88;;;11.20;99.90;;;;;;5056524;28;20041;-59
2023/02/15 12:04:24;;;;;;;33.55;17.45;;;11.30;99.90;;;;;;5056244;28;20491;-60
2023/02/15 12:06:51;;;;;;;28.48;16.70;;;11.30;99.90;;;;;;5056305;28;20037;-61
2023/02/15 12:09:19;;;;;;;31.52;17.50;;;11.40;99.90;;;;;;5056572;28;20052;-59
2023/02/15 12:11:49;;;;;;;18.38;15.05;;;11.50;99.90;;;;;;5056378;28;20459;-61
2023/02/15 12:14:15;;;;;;;22.38;14.90;;;11.50;99.90;;;;;;5054935;28;20479;-62
2023/02/15 12:16:42;;;;;;;21.08;14.30;;;11.50;99.90;;;;;;5056167;28;20064;-62
2023/02/15 12:19:09;;;;;;;19.67;13.40;;;11.60;99.90;;;;;;5056554;28;20095;-60
2023/02/15 12:21:36;;;;;;;19.25;13.48;;;11.70;99.90;;;;;;5056215;28;20377;-60
2023/02/15 12:24:03;;;;;;;19.50;13.07;;;11.80;99.90;;;;;;5056160;28;20397;-61
2023/02/15 12:26:30;;;;;;;20.98;12.82;;;11.80;99.90;;;;;;5056050;28;20052;-61
2023/02/15 12:28:58;;;;;;;25.52;12.30;;;11.80;99.90;;;;;;5056054;28;20045;-62
2023/02/15 12:31:25;;;;;;;18.50;11.20;;;11.90;99.90;;;;;;5056187;28;20041;-61
2023/02/15 12:33:52;;;;;;;15.95;11.35;;;11.90;99.90;;;;;;5055771;28;20057;-59
2023/02/15 12:36:18;;;;;;;21.60;11.50;;;12.00;99.90;;;;;;5055669;28;20159;-61
2023/02/15 12:38:45;;;;;;;16.33;10.77;;;12.00;99.90;;;;;;5055998;28;20448;-60
2023/02/15 12:41:12;;;;;;;17.90;10.70;;;12.10;99.90;;;;;;5056077;28;20052;-61
2023/02/15 12:43:39;;;;;;;18.15;11.07;;;12.10;99.90;;;;;;5056452;28;20412;-60
2023/02/15 12:46:06;;;;;;;16.30;11.43;;;12.10;99.90;;;;;;5056337;28;20033;-61
2023/02/15 12:48:32;;;;;;;20.20;11.20;;;12.10;99.90;;;;;;5056387;28;20041;-62
2023/02/15 12:50:59;;;;;;;26.73;11.07;;;12.10;99.90;;;;;;5056077;28;20045;-63
2023/02/15 12:53:26;;;;;;;18.17;10.73;;;12.20;99.90;;;;;;5054969;28;20071;-61
2023/02/15 12:55:52;;;;;;;21.20;11.18;;;12.20;99.90;;;;;;5056212;28;20091;-60